sensor_id;sensor_type;location;lat;lon;timestamp;pressure;altitude;pressure_sealevel;temperature;humidity
17362;BME280;8798;51.938;4.348;2023-05-07T00:00:44;101142.31;;;17.33;70.58
17362;BME280;8798;51.938;4.348;2023-05-07T00:03:12;101132.00;;;17.28;70.31
17362;BME280;8798;51.938;4.348;2023-05-07T00:05:40;101118.16;;;17.23;70.82
17362;BME280;8798;51.938;4.348;2023-05-07T00:08:08;101119.38;;;17.20;70.65
17362;BME280;8798;51.938;4.348;2023-05-07T00:10:38;101118.75;;;17.18;70.74
17362;BME280;8798;51.938;4.348;2023-05-07T00:13:06;101120.59;;;17.18;70.50
17362;BME280;8798;51.938;4.348;2023-05-07T00:15:34;101141.31;;;17.19;70.62
17362;BME280;8798;51.938;4.348;2023-05-07T00:18:01;101143.19;;;17.18;70.84
17362;BME280;8798;51.938;4.348;2023-05-07T00:20:29;101157.22;;;17.22;70.80
17362;BME280;8798;51.938;4.348;2023-05-07T00:23:00;101181.47;;;17.24;70.65
17362;BME280;8798;51.938;4.348;2023-05-07T00:25:28;101179.78;;;17.23;70.99
17362;BME280;8798;51.938;4.348;2023-05-07T00:27:57;101179.97;;;17.21;70.79
17362;BME280;8798;51.938;4.348;2023-05-07T00:30:29;101176.59;;;17.19;70.88
17362;BME280;8798;51.938;4.348;2023-05-07T00:32:57;101190.19;;;17.19;71.17
17362;BME280;8798;51.938;4.348;2023-05-07T00:35:24;101185.75;;;17.18;71.08
17362;BME280;8798;51.938;4.348;2023-05-07T00:37:52;101184.25;;;17.15;71.10
17362;BME280;8798;51.938;4.348;2023-05-07T00:40:20;101179.22;;;17.12;70.93
17362;BME280;8798;51.938;4.348;2023-05-07T00:42:48;101176.69;;;17.11;71.36
17362;BME280;8798;51.938;4.348;2023-05-07T00:45:17;101168.09;;;17.07;71.42
17362;BME280;8798;51.938;4.348;2023-05-07T00:47:45;101168.25;;;17.06;71.10
17362;BME280;8798;51.938;4.348;2023-05-07T00:50:13;101177.44;;;17.05;71.13
17362;BME280;8798;51.938;4.348;2023-05-07T00:52:41;101177.63;;;17.03;71.37
17362;BME280;8798;51.938;4.348;2023-05-07T00:55:10;101182.03;;;17.04;71.16
17362;BME280;8798;51.938;4.348;2023-05-07T00:57:40;101191.00;;;17.05;71.55
17362;BME280;8798;51.938;4.348;2023-05-07T01:00:09;101188.47;;;17.03;71.40
17362;BME280;8798;51.938;4.348;2023-05-07T01:02:41;101200.38;;;17.02;71.38
17362;BME280;8798;51.938;4.348;2023-05-07T01:05:12;101209.34;;;17.03;71.36
17362;BME280;8798;51.938;4.348;2023-05-07T01:07:42;101228.84;;;17.06;71.61
17362;BME280;8798;51.938;4.348;2023-05-07T01:10:11;101238.50;;;17.09;71.75
17362;BME280;8798;51.938;4.348;2023-05-07T01:12:40;101243.03;;;17.08;71.58
17362;BME280;8798;51.938;4.348;2023-05-07T01:15:09;101261.03;;;17.09;71.70
17362;BME280;8798;51.938;4.348;2023-05-07T01:17:38;101260.00;;;17.10;71.59
17362;BME280;8798;51.938;4.348;2023-05-07T01:20:10;101277.78;;;17.13;71.81
17362;BME280;8798;51.938;4.348;2023-05-07T01:22:40;101286.78;;;17.13;72.07
17362;BME280;8798;51.938;4.348;2023-05-07T01:25:08;101286.78;;;17.13;71.79
17362;BME280;8798;51.938;4.348;2023-05-07T01:27:36;101301.22;;;17.14;71.84
17362;BME280;8798;51.938;4.348;2023-05-07T01:30:04;101310.19;;;17.14;71.95
17362;BME280;8798;51.938;4.348;2023-05-07T01:32:36;101319.00;;;17.16;71.73
17362;BME280;8798;51.938;4.348;2023-05-07T01:35:07;101320.69;;;17.17;71.98
17362;BME280;8798;51.938;4.348;2023-05-07T01:37:37;101332.38;;;17.18;72.17
17362;BME280;8798;51.938;4.348;2023-05-07T01:40:08;101342.91;;;17.21;71.89
17362;BME280;8798;51.938;4.348;2023-05-07T01:42:36;101347.28;;;17.22;72.01
17362;BME280;8798;51.938;4.348;2023-05-07T01:45:05;101360.69;;;17.24;72.28
17362;BME280;8798;51.938;4.348;2023-05-07T01:47:34;101370.53;;;17.25;72.16
17362;BME280;8798;51.938;4.348;2023-05-07T01:50:03;101380.34;;;17.26;72.09
17362;BME280;8798;51.938;4.348;2023-05-07T01:52:32;101392.91;;;17.27;72.13
17362;BME280;8798;51.938;4.348;2023-05-07T01:54:59;101403.41;;;17.30;71.97
17362;BME280;8798;51.938;4.348;2023-05-07T01:57:29;101409.50;;;17.32;71.80
17362;BME280;8798;51.938;4.348;2023-05-07T01:59:57;101410.72;;;17.29;72.26
17362;BME280;8798;51.938;4.348;2023-05-07T02:02:24;101407.16;;;17.29;72.03
17362;BME280;8798;51.938;4.348;2023-05-07T02:04:52;101386.81;;;17.25;72.38
17362;BME280;8798;51.938;4.348;2023-05-07T02:07:20;101389.91;;;17.22;72.11
17362;BME280;8798;51.938;4.348;2023-05-07T02:09:48;101370.22;;;17.19;72.23
17362;BME280;8798;51.938;4.348;2023-05-07T02:12:16;101364.28;;;17.16;72.11
17362;BME280;8798;51.938;4.348;2023-05-07T02:14:45;101366.84;;;17.17;72.13
17362;BME280;8798;51.938;4.348;2023-05-07T02:17:13;101378.53;;;17.18;72.25
17362;BME280;8798;51.938;4.348;2023-05-07T02:19:40;101377.69;;;17.17;72.37
17362;BME280;8798;51.938;4.348;2023-05-07T02:22:10;101385.69;;;17.19;72.01
17362;BME280;8798;51.938;4.348;2023-05-07T02:24:37;101394.66;;;17.19;72.62
17362;BME280;8798;51.938;4.348;2023-05-07T02:27:05;101400.75;;;17.22;72.71
17362;BME280;8798;51.938;4.348;2023-05-07T02:29:33;101410.59;;;17.23;72.17
17362;BME280;8798;51.938;4.348;2023-05-07T02:32:02;101422.94;;;17.25;72.91
17362;BME280;8798;51.938;4.348;2023-05-07T02:34:30;101435.53;;;17.26;72.91
17362;BME280;8798;51.938;4.348;2023-05-07T02:36:58;101429.88;;;17.28;72.64
17362;BME280;8798;51.938;4.348;2023-05-07T02:39:26;101440.75;;;17.28;72.63
17362;BME280;8798;51.938;4.348;2023-05-07T02:41:54;101440.75;;;17.28;72.88
17362;BME280;8798;51.938;4.348;2023-05-07T02:44:21;101442.81;;;17.26;72.62
17362;BME280;8798;51.938;4.348;2023-05-07T02:46:49;101450.59;;;17.29;72.86
17362;BME280;8798;51.938;4.348;2023-05-07T02:49:18;101454.16;;;17.29;72.67
17362;BME280;8798;51.938;4.348;2023-05-07T02:51:47;101451.63;;;17.28;72.82
17362;BME280;8798;51.938;4.348;2023-05-07T02:54:15;101447.22;;;17.27;72.50
17362;BME280;8798;51.938;4.348;2023-05-07T02:56:44;101465.03;;;17.29;72.63
17362;BME280;8798;51.938;4.348;2023-05-07T02:59:11;101456.88;;;17.29;72.47
17362;BME280;8798;51.938;4.348;2023-05-07T03:01:39;101464.00;;;17.30;72.91
17362;BME280;8798;51.938;4.348;2023-05-07T03:04:08;101465.88;;;17.30;72.80
17362;BME280;8798;51.938;4.348;2023-05-07T03:06:37;101475.69;;;17.31;72.96
17362;BME280;8798;51.938;4.348;2023-05-07T03:09:05;101475.88;;;17.29;72.91
17362;BME280;8798;51.938;4.348;2023-05-07T03:11:33;101470.47;;;17.29;72.32
17362;BME280;8798;51.938;4.348;2023-05-07T03:14:02;101480.28;;;17.30;72.46
17362;BME280;8798;51.938;4.348;2023-05-07T03:16:29;101467.91;;;17.28;72.72
17362;BME280;8798;51.938;4.348;2023-05-07T03:18:57;101467.91;;;17.28;72.64
17362;BME280;8798;51.938;4.348;2023-05-07T03:21:25;101457.41;;;17.25;72.64
17362;BME280;8798;51.938;4.348;2023-05-07T03:23:55;101451.31;;;17.23;72.69
17362;BME280;8798;51.938;4.348;2023-05-07T03:26:23;101445.41;;;17.19;72.77
17362;BME280;8798;51.938;4.348;2023-05-07T03:28:51;101436.44;;;17.18;72.90
17362;BME280;8798;51.938;4.348;2023-05-07T03:31:19;101447.94;;;17.20;72.97
17362;BME280;8798;51.938;4.348;2023-05-07T03:33:51;101439.31;;;17.17;72.87
17362;BME280;8798;51.938;4.348;2023-05-07T03:36:19;101425.06;;;17.15;72.98
17362;BME280;8798;51.938;4.348;2023-05-07T03:38:48;101433.03;;;17.16;73.02
17362;BME280;8798;51.938;4.348;2023-05-07T03:41:17;101443.91;;;17.16;73.38
17362;BME280;8798;51.938;4.348;2023-05-07T03:43:45;101439.47;;;17.15;73.13
17362;BME280;8798;51.938;4.348;2023-05-07T03:46:12;101443.91;;;17.16;72.97
17362;BME280;8798;51.938;4.348;2023-05-07T03:48:40;101435.94;;;17.15;72.80
17362;BME280;8798;51.938;4.348;2023-05-07T03:51:08;101440.31;;;17.16;73.19
17362;BME280;8798;51.938;4.348;2023-05-07T03:53:36;101445.75;;;17.16;72.92
17362;BME280;8798;51.938;4.348;2023-05-07T03:56:04;101438.66;;;17.15;72.84
17362;BME280;8798;51.938;4.348;2023-05-07T03:58:33;101443.25;;;17.14;73.19
17362;BME280;8798;51.938;4.348;2023-05-07T04:01:01;101443.25;;;17.14;73.13
17362;BME280;8798;51.938;4.348;2023-05-07T04:03:29;101450.53;;;17.14;73.13
17362;BME280;8798;51.938;4.348;2023-05-07T04:05:57;101445.94;;;17.14;73.20
17362;BME280;8798;51.938;4.348;2023-05-07T04:08:25;101457.66;;;17.15;73.14
17362;BME280;8798;51.938;4.348;2023-05-07T04:10:54;101458.31;;;17.17;73.10
17362;BME280;8798;51.938;4.348;2023-05-07T04:13:22;101467.31;;;17.17;73.20
17362;BME280;8798;51.938;4.348;2023-05-07T04:15:52;101473.56;;;17.18;73.12
17362;BME280;8798;51.938;4.348;2023-05-07T04:18:20;101485.94;;;17.20;73.04
17362;BME280;8798;51.938;4.348;2023-05-07T04:20:48;101497.47;;;17.23;73.25
17362;BME280;8798;51.938;4.348;2023-05-07T04:23:16;101508.19;;;17.24;73.33
17362;BME280;8798;51.938;4.348;2023-05-07T04:25:44;101514.44;;;17.25;73.29
17362;BME280;8798;51.938;4.348;2023-05-07T04:28:12;101513.41;;;17.26;73.23
17362;BME280;8798;51.938;4.348;2023-05-07T04:30:40;101520.53;;;17.27;73.25
17362;BME280;8798;51.938;4.348;2023-05-07T04:33:09;101526.81;;;17.27;73.25
17362;BME280;8798;51.938;4.348;2023-05-07T04:35:38;101533.94;;;17.28;73.15
17362;BME280;8798;51.938;4.348;2023-05-07T04:38:05;101528.50;;;17.28;73.21
17362;BME280;8798;51.938;4.348;2023-05-07T04:40:35;101539.19;;;17.30;73.27
17362;BME280;8798;51.938;4.348;2023-05-07T04:43:03;101533.75;;;17.30;73.08
17362;BME280;8798;51.938;4.348;2023-05-07T04:45:31;101537.50;;;17.29;73.28
17362;BME280;8798;51.938;4.348;2023-05-07T04:47:59;101538.53;;;17.28;73.59
17362;BME280;8798;51.938;4.348;2023-05-07T04:50:29;101533.09;;;17.28;73.11
17362;BME280;8798;51.938;4.348;2023-05-07T04:52:57;101544.63;;;17.30;73.17
17362;BME280;8798;51.938;4.348;2023-05-07T04:55:24;101544.63;;;17.30;73.19
17362;BME280;8798;51.938;4.348;2023-05-07T04:57:53;101565.16;;;17.32;73.14
17362;BME280;8798;51.938;4.348;2023-05-07T05:00:21;101565.81;;;17.34;73.18
17362;BME280;8798;51.938;4.348;2023-05-07T05:02:49;101570.22;;;17.35;73.33
17362;BME280;8798;51.938;4.348;2023-05-07T05:05:17;101579.03;;;17.37;73.42
17362;BME280;8798;51.938;4.348;2023-05-07T05:07:46;101579.03;;;17.37;73.20
17362;BME280;8798;51.938;4.348;2023-05-07T05:10:14;101593.28;;;17.39;73.09
17362;BME280;8798;51.938;4.348;2023-05-07T05:12:42;101595.84;;;17.41;73.19
17362;BME280;8798;51.938;4.348;2023-05-07T05:15:11;101597.69;;;17.40;73.50
17362;BME280;8798;51.938;4.348;2023-05-07T05:17:39;101607.34;;;17.43;73.36
17362;BME280;8798;51.938;4.348;2023-05-07T05:20:08;101612.44;;;17.46;73.20
17362;BME280;8798;51.938;4.348;2023-05-07T05:22:38;101632.16;;;17.48;73.25
17362;BME280;8798;51.938;4.348;2023-05-07T05:25:07;101639.94;;;17.51;73.24
17362;BME280;8798;51.938;4.348;2023-05-07T05:27:37;101654.81;;;17.55;73.42
17362;BME280;8798;51.938;4.348;2023-05-07T05:30:08;101662.81;;;17.57;73.06
17362;BME280;8798;51.938;4.348;2023-05-07T05:32:37;101674.34;;;17.59;73.32
17362;BME280;8798;51.938;4.348;2023-05-07T05:35:06;101686.56;;;17.63;73.17
17362;BME280;8798;51.938;4.348;2023-05-07T05:37:34;101698.09;;;17.65;73.17
17362;BME280;8798;51.938;4.348;2023-05-07T05:40:02;101698.09;;;17.65;73.39
17362;BME280;8798;51.938;4.348;2023-05-07T05:42:31;101689.94;;;17.65;73.58
17362;BME280;8798;51.938;4.348;2023-05-07T05:44:59;101697.94;;;17.67;73.39
17362;BME280;8798;51.938;4.348;2023-05-07T05:47:27;101709.28;;;17.70;73.19
17362;BME280;8798;51.938;4.348;2023-05-07T05:49:55;101737.63;;;17.76;73.48
17362;BME280;8798;51.938;4.348;2023-05-07T05:52:23;101769.41;;;17.83;73.39
17362;BME280;8798;51.938;4.348;2023-05-07T05:54:51;101790.63;;;17.88;73.62
17362;BME280;8798;51.938;4.348;2023-05-07T05:57:19;101804.53;;;17.93;73.53
17362;BME280;8798;51.938;4.348;2023-05-07T05:59:48;101840.66;;;18.02;73.45
17362;BME280;8798;51.938;4.348;2023-05-07T06:02:16;101859.19;;;18.07;73.63
17362;BME280;8798;51.938;4.348;2023-05-07T06:04:44;101879.38;;;18.12;73.18
17362;BME280;8798;51.938;4.348;2023-05-07T06:07:12;101899.63;;;18.18;73.50
17362;BME280;8798;51.938;4.348;2023-05-07T06:09:40;101909.97;;;18.22;73.55
17362;BME280;8798;51.938;4.348;2023-05-07T06:12:08;101929.31;;;18.27;73.64
17362;BME280;8798;51.938;4.348;2023-05-07T06:14:36;101936.94;;;18.32;73.43
17362;BME280;8798;51.938;4.348;2023-05-07T06:17:05;101954.63;;;18.36;73.44
17362;BME280;8798;51.938;4.348;2023-05-07T06:19:33;101971.44;;;18.40;73.47
17362;BME280;8798;51.938;4.348;2023-05-07T06:22:01;101956.97;;;18.39;73.56
17362;BME280;8798;51.938;4.348;2023-05-07T06:24:29;101955.13;;;18.40;73.33
17362;BME280;8798;51.938;4.348;2023-05-07T06:26:57;101962.09;;;18.42;73.63
17362;BME280;8798;51.938;4.348;2023-05-07T06:29:25;101962.75;;;18.44;73.22
17362;BME280;8798;51.938;4.348;2023-05-07T06:31:53;101953.06;;;18.42;73.50
17362;BME280;8798;51.938;4.348;2023-05-07T06:34:23;101943.03;;;18.42;73.26
17362;BME280;8798;51.938;4.348;2023-05-07T06:36:51;101938.59;;;18.41;73.51
17362;BME280;8798;51.938;4.348;2023-05-07T06:39:19;101910.06;;;18.37;73.40
17362;BME280;8798;51.938;4.348;2023-05-07T06:41:46;101901.25;;;18.35;73.21
17362;BME280;8798;51.938;4.348;2023-05-07T06:44:14;101875.41;;;18.31;73.02
17362;BME280;8798;51.938;4.348;2023-05-07T06:46:42;101854.16;;;18.26;73.12
17362;BME280;8798;51.938;4.348;2023-05-07T06:49:10;101831.25;;;18.21;73.23
17362;BME280;8798;51.938;4.348;2023-05-07T06:51:39;101821.38;;;18.20;73.26
17362;BME280;8798;51.938;4.348;2023-05-07T06:54:07;101822.94;;;18.22;73.45
17362;BME280;8798;51.938;4.348;2023-05-07T06:56:35;101846.84;;;18.27;73.23
17362;BME280;8798;51.938;4.348;2023-05-07T06:59:03;101862.63;;;18.32;73.21
17362;BME280;8798;51.938;4.348;2023-05-07T07:01:31;101882.88;;;18.37;73.38
17362;BME280;8798;51.938;4.348;2023-05-07T07:03:59;101903.06;;;18.43;73.19
17362;BME280;8798;51.938;4.348;2023-05-07T07:06:27;101937.38;;;18.52;73.33
17362;BME280;8798;51.938;4.348;2023-05-07T07:08:56;102006.38;;;18.67;73.15
17362;BME280;8798;51.938;4.348;2023-05-07T07:11:24;102054.69;;;18.82;73.15
17362;BME280;8798;51.938;4.348;2023-05-07T07:13:52;102092.56;;;18.91;72.89
17362;BME280;8798;51.938;4.348;2023-05-07T07:16:21;102131.19;;;19.03;72.87
17362;BME280;8798;51.938;4.348;2023-05-07T07:18:49;102131.69;;;19.07;73.16
17362;BME280;8798;51.938;4.348;2023-05-07T07:21:17;102139.66;;;19.08;73.10
17362;BME280;8798;51.938;4.348;2023-05-07T07:23:45;102135.09;;;19.09;72.82
17362;BME280;8798;51.938;4.348;2023-05-07T07:26:14;102129.44;;;19.10;72.88
17362;BME280;8798;51.938;4.348;2023-05-07T07:28:43;102132.69;;;19.14;72.78
17362;BME280;8798;51.938;4.348;2023-05-07T07:31:11;102156.50;;;19.20;72.75
17362;BME280;8798;51.938;4.348;2023-05-07T07:33:39;102174.88;;;19.26;72.88
17362;BME280;8798;51.938;4.348;2023-05-07T07:36:07;102207.53;;;19.34;72.83
17362;BME280;8798;51.938;4.348;2023-05-07T07:38:35;102232.03;;;19.43;72.58
17362;BME280;8798;51.938;4.348;2023-05-07T07:41:03;102243.94;;;19.50;72.69
17362;BME280;8798;51.938;4.348;2023-05-07T07:43:32;102276.59;;;19.58;72.63
17362;BME280;8798;51.938;4.348;2023-05-07T07:46:00;102310.03;;;19.68;72.54
17362;BME280;8798;51.938;4.348;2023-05-07T07:48:28;102345.91;;;19.80;72.38
17362;BME280;8798;51.938;4.348;2023-05-07T07:50:56;102398.06;;;19.93;72.23
17362;BME280;8798;51.938;4.348;2023-05-07T07:53:24;102433.13;;;20.05;72.20
17362;BME280;8798;51.938;4.348;2023-05-07T07:55:52;102461.94;;;20.15;72.34
17362;BME280;8798;51.938;4.348;2023-05-07T07:58:25;102463.28;;;20.19;72.02
17362;BME280;8798;51.938;4.348;2023-05-07T08:00:54;102459.34;;;20.22;71.97
17362;BME280;8798;51.938;4.348;2023-05-07T08:03:24;102475.03;;;20.28;71.82
17362;BME280;8798;51.938;4.348;2023-05-07T08:05:52;102462.91;;;20.31;71.83
17362;BME280;8798;51.938;4.348;2023-05-07T08:08:20;102492.91;;;20.39;71.65
17362;BME280;8798;51.938;4.348;2023-05-07T08:10:48;102510.28;;;20.46;71.83
17362;BME280;8798;51.938;4.348;2023-05-07T08:13:17;102521.53;;;20.51;71.41
17362;BME280;8798;51.938;4.348;2023-05-07T08:15:45;102516.75;;;20.53;71.51
17362;BME280;8798;51.938;4.348;2023-05-07T08:18:14;102527.84;;;20.60;71.39
17362;BME280;8798;51.938;4.348;2023-05-07T08:20:42;102537.22;;;20.66;71.12
17362;BME280;8798;51.938;4.348;2023-05-07T08:23:10;102534.97;;;20.69;71.17
17362;BME280;8798;51.938;4.348;2023-05-07T08:25:38;102550.66;;;20.75;71.10
17362;BME280;8798;51.938;4.348;2023-05-07T08:28:06;102568.91;;;20.83;70.97
17362;BME280;8798;51.938;4.348;2023-05-07T08:30:35;102565.63;;;20.88;70.72
17362;BME280;8798;51.938;4.348;2023-05-07T08:33:03;102569.53;;;20.93;70.73
17362;BME280;8798;51.938;4.348;2023-05-07T08:35:32;102587.97;;;20.99;70.71
17362;BME280;8798;51.938;4.348;2023-05-07T08:38:00;102580.25;;;21.03;70.45
17362;BME280;8798;51.938;4.348;2023-05-07T08:40:28;102595.28;;;21.07;70.44
17362;BME280;8798;51.938;4.348;2023-05-07T08:42:56;102594.91;;;21.10;70.34
17362;BME280;8798;51.938;4.348;2023-05-07T08:45:26;102583.59;;;21.13;70.27
17362;BME280;8798;51.938;4.348;2023-05-07T08:47:58;102574.88;;;21.18;70.02
17362;BME280;8798;51.938;4.348;2023-05-07T08:50:27;102581.88;;;21.20;70.05
17362;BME280;8798;51.938;4.348;2023-05-07T08:52:56;102566.31;;;21.21;70.03
17362;BME280;8798;51.938;4.348;2023-05-07T08:55:24;102549.22;;;21.19;69.63
17362;BME280;8798;51.938;4.348;2023-05-07T08:57:52;102523.78;;;21.18;69.43
17362;BME280;8798;51.938;4.348;2023-05-07T09:00:20;102537.75;;;21.23;69.41
17362;BME280;8798;51.938;4.348;2023-05-07T09:02:48;102540.78;;;21.29;69.47
17362;BME280;8798;51.938;4.348;2023-05-07T09:05:16;102574.09;;;21.40;69.18
17362;BME280;8798;51.938;4.348;2023-05-07T09:07:45;102624.44;;;21.54;69.43
17362;BME280;8798;51.938;4.348;2023-05-07T09:10:14;102646.09;;;21.64;69.28
17362;BME280;8798;51.938;4.348;2023-05-07T09:12:42;102696.63;;;21.76;69.23
17362;BME280;8798;51.938;4.348;2023-05-07T09:15:10;102718.94;;;21.88;68.90
17362;BME280;8798;51.938;4.348;2023-05-07T09:17:39;102740.81;;;21.96;68.57
17362;BME280;8798;51.938;4.348;2023-05-07T09:20:08;102750.16;;;22.02;68.96
17362;BME280;8798;51.938;4.348;2023-05-07T09:22:37;102761.25;;;22.08;68.31
17362;BME280;8798;51.938;4.348;2023-05-07T09:25:06;102747.19;;;22.11;68.31
17362;BME280;8798;51.938;4.348;2023-05-07T09:27:36;102728.88;;;22.12;68.65
17362;BME280;8798;51.938;4.348;2023-05-07T09:30:05;102755.22;;;22.21;68.59
17362;BME280;8798;51.938;4.348;2023-05-07T09:32:35;102778.75;;;22.30;67.83
17362;BME280;8798;51.938;4.348;2023-05-07T09:35:05;102787.94;;;22.38;67.81
17362;BME280;8798;51.938;4.348;2023-05-07T09:37:33;102768.75;;;22.38;68.16
17362;BME280;8798;51.938;4.348;2023-05-07T09:40:01;102743.25;;;22.37;67.35
17362;BME280;8798;51.938;4.348;2023-05-07T09:42:29;102734.88;;;22.39;67.18
17362;BME280;8798;51.938;4.348;2023-05-07T09:45:00;102716.53;;;22.39;67.60
17362;BME280;8798;51.938;4.348;2023-05-07T09:47:32;102729.53;;;22.45;67.06
17362;BME280;8798;51.938;4.348;2023-05-07T09:50:02;102732.34;;;22.52;67.08
17362;BME280;8798;51.938;4.348;2023-05-07T09:52:33;102732.66;;;22.57;67.03
17362;BME280;8798;51.938;4.348;2023-05-07T09:55:02;102751.09;;;22.63;66.78
17362;BME280;8798;51.938;4.348;2023-05-07T09:57:30;102753.09;;;22.69;66.42
17362;BME280;8798;51.938;4.348;2023-05-07T10:00:01;102726.72;;;22.68;66.41
17362;BME280;8798;51.938;4.348;2023-05-07T10:02:31;102734.19;;;22.74;66.25
17362;BME280;8798;51.938;4.348;2023-05-07T10:05:02;102755.00;;;22.84;65.69
17362;BME280;8798;51.938;4.348;2023-05-07T10:07:30;102725.91;;;22.83;66.06
17362;BME280;8798;51.938;4.348;2023-05-07T10:09:59;102745.84;;;22.91;65.78
17362;BME280;8798;51.938;4.348;2023-05-07T10:12:27;102770.47;;;23.00;65.58
17362;BME280;8798;51.938;4.348;2023-05-07T10:14:56;102794.88;;;23.09;64.96
17362;BME280;8798;51.938;4.348;2023-05-07T10:17:26;102820.81;;;23.22;65.29
17362;BME280;8798;51.938;4.348;2023-05-07T10:19:54;102862.34;;;23.33;64.83
17362;BME280;8798;51.938;4.348;2023-05-07T10:22:23;102821.59;;;23.30;64.56
17362;BME280;8798;51.938;4.348;2023-05-07T10:24:52;102813.81;;;23.34;64.70
17362;BME280;8798;51.938;4.348;2023-05-07T10:27:22;102808.81;;;23.37;64.46
17362;BME280;8798;51.938;4.348;2023-05-07T10:32:44;102763.03;;;23.38;64.38
17362;BME280;8798;51.938;4.348;2023-05-07T10:35:17;102712.88;;;23.29;63.80
17362;BME280;8798;51.938;4.348;2023-05-07T10:37:46;102664.28;;;23.23;63.52
17362;BME280;8798;51.938;4.348;2023-05-07T10:40:14;102627.31;;;23.19;63.36
17362;BME280;8798;51.938;4.348;2023-05-07T10:42:53;102577.91;;;23.12;63.44
17362;BME280;8798;51.938;4.348;2023-05-07T10:45:23;102563.97;;;23.14;63.21
17362;BME280;8798;51.938;4.348;2023-05-07T10:48:09;102586.19;;;23.19;63.22
17362;BME280;8798;51.938;4.348;2023-05-07T10:50:41;102575.03;;;23.21;63.02
17362;BME280;8798;51.938;4.348;2023-05-07T10:53:33;102555.81;;;23.21;63.09
17362;BME280;8798;51.938;4.348;2023-05-07T10:56:24;102530.31;;;23.20;62.37
17362;BME280;8798;51.938;4.348;2023-05-07T10:58:52;102520.19;;;23.21;62.24
17362;BME280;8798;51.938;4.348;2023-05-07T11:01:53;102495.91;;;23.17;62.32
17362;BME280;8798;51.938;4.348;2023-05-07T11:04:22;102479.44;;;23.17;61.89
17362;BME280;8798;51.938;4.348;2023-05-07T11:07:26;102467.41;;;23.18;62.29
17362;BME280;8798;51.938;4.348;2023-05-07T11:10:12;102439.53;;;23.15;62.13
17362;BME280;8798;51.938;4.348;2023-05-07T11:12:50;102389.28;;;23.08;62.13
17362;BME280;8798;51.938;4.348;2023-05-07T11:15:38;102377.47;;;23.07;62.06
17362;BME280;8798;51.938;4.348;2023-05-07T11:18:06;102358.47;;;23.06;61.98
17362;BME280;8798;51.938;4.348;2023-05-07T11:20:55;102312.63;;;23.00;61.20
17362;BME280;8798;51.938;4.348;2023-05-07T11:23:55;102292.31;;;22.94;61.56
17362;BME280;8798;51.938;4.348;2023-05-07T11:26:24;102255.41;;;22.90;61.24
17362;BME280;8798;51.938;4.348;2023-05-07T11:28:53;102218.22;;;22.81;60.91
17362;BME280;8798;51.938;4.348;2023-05-07T11:31:25;102185.75;;;22.78;60.89
17362;BME280;8798;51.938;4.348;2023-05-07T11:33:55;102174.13;;;22.75;61.41
17362;BME280;8798;51.938;4.348;2023-05-07T11:36:24;102141.19;;;22.69;61.37
17362;BME280;8798;51.938;4.348;2023-05-07T11:38:53;102089.72;;;22.58;61.23
17362;BME280;8798;51.938;4.348;2023-05-07T11:41:21;102062.91;;;22.53;61.12
17362;BME280;8798;51.938;4.348;2023-05-07T11:43:58;102047.94;;;22.49;61.15
17362;BME280;8798;51.938;4.348;2023-05-07T11:46:28;102028.94;;;22.47;60.78
17362;BME280;8798;51.938;4.348;2023-05-07T11:48:56;102036.97;;;22.49;60.45
17362;BME280;8798;51.938;4.348;2023-05-07T11:51:25;102059.13;;;22.54;60.53
17362;BME280;8798;51.938;4.348;2023-05-07T11:53:53;102076.63;;;22.60;61.34
17362;BME280;8798;51.938;4.348;2023-05-07T11:56:21;102067.59;;;22.59;60.58
17362;BME280;8798;51.938;4.348;2023-05-07T11:58:49;102053.44;;;22.56;60.81
17362;BME280;8798;51.938;4.348;2023-05-07T12:01:18;102053.22;;;22.57;61.13
17362;BME280;8798;51.938;4.348;2023-05-07T12:03:46;102083.22;;;22.65;61.07
17362;BME280;8798;51.938;4.348;2023-05-07T12:06:16;102105.38;;;22.70;60.41
17362;BME280;8798;51.938;4.348;2023-05-07T12:08:46;102108.56;;;22.74;60.94
17362;BME280;8798;51.938;4.348;2023-05-07T12:11:15;102134.94;;;22.82;60.32
17362;BME280;8798;51.938;4.348;2023-05-07T12:13:44;102143.81;;;22.84;60.71
17362;BME280;8798;51.938;4.348;2023-05-07T12:16:12;102190.72;;;22.95;60.23
17362;BME280;8798;51.938;4.348;2023-05-07T12:18:40;102234.91;;;23.07;60.26
17362;BME280;8798;51.938;4.348;2023-05-07T12:21:08;102257.69;;;23.14;60.72
17362;BME280;8798;51.938;4.348;2023-05-07T12:23:38;102257.50;;;23.16;60.43
17362;BME280;8798;51.938;4.348;2023-05-07T12:26:08;102210.22;;;23.07;60.26
17362;BME280;8798;51.938;4.348;2023-05-07T12:28:37;102178.13;;;23.01;59.99
17362;BME280;8798;51.938;4.348;2023-05-07T12:31:06;102182.34;;;23.04;60.29
17362;BME280;8798;51.938;4.348;2023-05-07T12:33:35;102127.00;;;22.93;60.56
17362;BME280;8798;51.938;4.348;2023-05-07T12:36:05;102058.81;;;22.77;60.71
17362;BME280;8798;51.938;4.348;2023-05-07T12:38:35;102032.25;;;22.71;60.37
17362;BME280;8798;51.938;4.348;2023-05-07T12:41:05;101995.09;;;22.62;60.12
17362;BME280;8798;51.938;4.348;2023-05-07T12:43:35;101903.59;;;22.43;60.48
17362;BME280;8798;51.938;4.348;2023-05-07T12:46:04;101830.44;;;22.23;60.64
17362;BME280;8798;51.938;4.348;2023-05-07T12:48:33;101757.91;;;22.06;60.39
17362;BME280;8798;51.938;4.348;2023-05-07T12:51:05;101690.91;;;21.88;60.57
17362;BME280;8798;51.938;4.348;2023-05-07T12:53:33;101671.50;;;21.83;60.58
17362;BME280;8798;51.938;4.348;2023-05-07T12:56:05;101653.19;;;21.77;60.51
17362;BME280;8798;51.938;4.348;2023-05-07T12:58:35;101626.88;;;21.69;60.94
17362;BME280;8798;51.938;4.348;2023-05-07T13:01:06;101573.19;;;21.55;60.83
17362;BME280;8798;51.938;4.348;2023-05-07T13:03:37;101508.81;;;21.39;61.31
17362;BME280;8798;51.938;4.348;2023-05-07T13:06:07;101469.44;;;21.27;60.97
17362;BME280;8798;51.938;4.348;2023-05-07T13:08:37;101448.59;;;21.19;61.12
17362;BME280;8798;51.938;4.348;2023-05-07T13:11:08;101454.91;;;21.20;61.21
17362;BME280;8798;51.938;4.348;2023-05-07T13:13:39;101477.19;;;21.23;61.65